Accueil
METAR-TAF:

METAR-TAF

Aéroports :

Aéroport de Saint-Pierre Pointe-Blanche

Saint-Pierre, Saint-Pierre-et-Miquelon

latitude: 46-46N, longitude: 056-10W, altitude: 3 m

Observation

Le bulletin a été fait il y a 29 minutes, à 21:00 UTC
Vent 11 kt de nord/nord-ouest, variant entre nord-ouest et nord
Température 5°C
Humidité 60%
Pression 1012 hPa
Visibilité 10 km ou plus
Nuages fragmentés à une hauteur de 3600 ft

METAR: LFVP 242100Z 34011KT 310V010 9999 BKN036 05/M02 Q1012 NOSIG

Heure: 19:29 (21:29 UTC)

Prévision

Le bulletin a été fait il y a 4 heures et 29 minutes, à 17:00 UTC
Prévision valable du 24 à 18 UTC au 25 à 03 UTC
Vent 20 kt de nord
Visibilité 10 km ou plus
Nuages épars à une hauteur de 2700 ft
Nuages fragmentés à une hauteur de 7500 ft
Evoluant progressivement
du 24 à 21 UTC au 24 à 24 UTC
Vent 10 kt de nord-ouest

TAF: LFVP 241700Z 2418/2503 35020KT 9999 SCT027 BKN075 BECMG 2421/2424 32010KT

Observations et prévisions météorologiques de plus de 4000 aéroports (messages METAR et TAF).

Les stations disponibles sont représentées par des disques jaunes et rouges sur la carte.

Passer la souris dessus pour voir le nom de la station.

Cliquer dessus pour voir les observations et prévisions météorologiques.

Pour changer de carte: cliquez sur les boutons verts avec une croix noire pour zoomer, sur le bouton vert avec un tiret pour effectuer un zoom arrière, ou sur les flèches vertes pour les cartes adjacentes.


METAR-TAF: